Terminal Aerodrome Forecast
Issued by NWS Sterling, VA

Current Version | Previous Version | Graphics & Text | Print | Product List | Glossary On
Versions: 1 2 3 4 5 6 7 8 9 10 11 12 13 14 15 16 17 18 19 20
317
FTUS41 KLWX 250855 AAA
TAFIAD
TAF AMD
KIAD 250855Z 2509/2612 VRB03KT P6SM FEW200 FEW250
     FM251400 02004KT P6SM FEW045 FEW250
     FM252000 08007KT P6SM FEW060 SCT250
     FM260400 VRB03KT P6SM FEW045 SCT250=

USA.gov is the U.S. government's official web portal to all federal, state and local government web resources and services.